Time;durP1;ratioP1;P1;durP2;ratioP2;P2;SDS_P1;SDS_P2;PMS_P1;PMS_P2;Temp;Humidity;BMP_temperature;BMP_pressure;BME280_temperature;BME280_humidity;BME280_pressure;Samples;Min_cycle;Max_cycle;Signal;HPM_P1;HPM_P2
2021/09/15 00:00:57;;;;;;;11.85;8.90;;;21.50;99.90;;;;;;5083270;28;20230;-76
2021/09/15 00:03:24;;;;;;;9.73;8.73;;;21.50;99.90;;;;;;5077406;28;20228;-76
2021/09/15 00:05:51;;;;;;;10.63;9.55;;;21.50;99.90;;;;;;5075590;28;20208;-76
2021/09/15 00:08:18;;;;;;;11.65;9.35;;;21.40;99.90;;;;;;5079861;28;20228;-76
2021/09/15 00:10:47;;;;;;;14.93;10.65;;;21.30;99.90;;;;;;5069608;28;20225;-76
2021/09/15 00:13:15;;;;;;;10.82;9.68;;;21.30;99.90;;;;;;5074935;28;20200;-76
2021/09/15 00:15:42;;;;;;;10.68;9.65;;;21.40;99.90;;;;;;5075529;28;20233;-76
2021/09/15 00:18:09;;;;;;;10.10;9.00;;;21.40;99.90;;;;;;5069768;28;20230;-76
2021/09/15 00:20:36;;;;;;;11.40;9.52;;;21.30;99.90;;;;;;5082480;28;20224;-76
2021/09/15 00:23:03;;;;;;;13.38;9.95;;;21.30;99.90;;;;;;5070509;28;20243;-76
2021/09/15 00:25:30;;;;;;;14.35;9.93;;;21.30;99.90;;;;;;5073316;28;20233;-76
2021/09/15 00:27:59;;;;;;;12.55;10.85;;;21.30;99.90;;;;;;5068405;28;20240;-76
2021/09/15 00:30:25;;;;;;;12.38;10.13;;;21.20;99.90;;;;;;5078697;28;20268;-76
2021/09/15 00:32:52;;;;;;;10.77;9.43;;;21.30;99.90;;;;;;5082266;28;20212;-76
2021/09/15 00:35:19;;;;;;;11.63;9.82;;;21.30;99.90;;;;;;5081629;28;20229;-76
2021/09/15 00:37:46;;;;;;;9.93;8.88;;;21.30;99.90;;;;;;5068473;28;20204;-76
2021/09/15 00:40:13;;;;;;;14.98;9.32;;;21.30;99.90;;;;;;5069729;28;20206;-76
2021/09/15 00:42:40;;;;;;;12.85;10.57;;;21.30;99.90;;;;;;5077505;28;20201;-76
2021/09/15 00:45:09;;;;;;;16.83;9.73;;;21.30;99.90;;;;;;5100939;28;20196;-76
2021/09/15 00:47:36;;;;;;;12.10;10.48;;;21.30;99.90;;;;;;5078315;28;20227;-76
2021/09/15 00:50:04;;;;;;;13.20;9.18;;;21.30;99.90;;;;;;5076875;28;20303;-76
2021/09/15 00:52:31;;;;;;;11.95;9.93;;;21.30;99.90;;;;;;5087753;28;20207;-76
2021/09/15 00:54:58;;;;;;;14.90;10.30;;;21.30;99.90;;;;;;5069512;28;20204;-76
2021/09/15 00:57:25;;;;;;;11.63;10.43;;;21.30;99.90;;;;;;5086093;28;20195;-76
2021/09/15 00:59:52;;;;;;;15.60;9.80;;;21.40;99.90;;;;;;5081825;28;20208;-76
2021/09/15 01:02:20;;;;;;;10.75;9.60;;;21.40;99.90;;;;;;5072221;28;20195;-76
2021/09/15 01:04:47;;;;;;;11.20;10.05;;;21.40;99.90;;;;;;5074483;28;20780;-76
2021/09/15 01:07:15;;;;;;;15.02;10.65;;;21.40;99.90;;;;;;5080987;28;20219;-76
2021/09/15 01:09:42;;;;;;;10.60;9.20;;;21.40;99.90;;;;;;5082016;28;20632;-76
2021/09/15 01:12:12;;;;;;;10.60;9.52;;;21.40;99.90;;;;;;5082068;28;20214;-76
2021/09/15 01:14:40;;;;;;;10.95;9.80;;;21.40;99.90;;;;;;5074694;28;21128;-76
2021/09/15 01:17:08;;;;;;;13.52;9.80;;;21.40;99.90;;;;;;5082412;28;20198;-76
2021/09/15 01:19:36;;;;;;;16.38;9.50;;;21.40;99.90;;;;;;5072925;28;20228;-76
2021/09/15 01:22:05;;;;;;;15.32;10.10;;;21.40;99.90;;;;;;5083258;28;20205;-76
2021/09/15 01:24:33;;;;;;;10.90;9.02;;;21.40;99.90;;;;;;5076654;28;20200;-76
2021/09/15 01:27:00;;;;;;;13.35;9.88;;;21.40;99.90;;;;;;5080939;28;20200;-75
2021/09/15 01:29:29;;;;;;;19.75;9.98;;;21.40;99.90;;;;;;5074545;28;20486;-76
2021/09/15 01:31:59;;;;;;;12.90;9.50;;;21.40;99.90;;;;;;5074358;28;20230;-76
2021/09/15 01:34:26;;;;;;;10.77;9.07;;;21.40;99.90;;;;;;5072884;28;20201;-76
2021/09/15 01:36:54;;;;;;;13.15;9.40;;;21.40;99.90;;;;;;5083839;28;20202;-76
2021/09/15 01:39:22;;;;;;;17.20;9.23;;;21.40;99.90;;;;;;5082154;28;20257;-76
2021/09/15 01:41:49;;;;;;;11.98;9.82;;;21.40;99.90;;;;;;5073911;28;20207;-76
2021/09/15 01:44:16;;;;;;;13.55;10.23;;;21.40;99.90;;;;;;5086281;28;20625;-76
2021/09/15 01:46:43;;;;;;;11.77;8.98;;;21.40;99.90;;;;;;5075438;28;20235;-76
2021/09/15 01:49:10;;;;;;;12.75;9.90;;;21.30;99.90;;;;;;5072656;28;20219;-76
2021/09/15 01:51:41;;;;;;;15.23;10.35;;;21.40;99.90;;;;;;5086146;28;20272;-76
2021/09/15 01:54:08;;;;;;;11.38;9.40;;;21.40;99.90;;;;;;5067450;28;20232;-76
2021/09/15 01:56:36;;;;;;;15.13;10.38;;;21.40;99.90;;;;;;5068291;28;20263;-76
2021/09/15 01:59:03;;;;;;;10.98;9.32;;;21.40;99.90;;;;;;5077942;28;20206;-76
2021/09/15 02:01:30;;;;;;;11.02;9.27;;;21.40;99.90;;;;;;5081481;28;20203;-76
2021/09/15 02:03:57;;;;;;;12.20;10.45;;;21.40;99.90;;;;;;5066962;28;20233;-76
2021/09/15 02:06:24;;;;;;;11.68;10.48;;;21.40;99.90;;;;;;5072417;28;20202;-76
2021/09/15 02:08:51;;;;;;;16.77;10.30;;;21.40;99.90;;;;;;5074662;28;20228;-76
2021/09/15 02:11:18;;;;;;;12.70;9.70;;;21.40;99.90;;;;;;5073990;28;20223;-76
2021/09/15 02:13:46;;;;;;;11.52;9.70;;;21.40;99.90;;;;;;5075537;28;20204;-76
2021/09/15 02:16:13;;;;;;;13.00;9.32;;;21.40;99.90;;;;;;5068206;28;20201;-76
2021/09/15 02:18:40;;;;;;;11.07;9.55;;;21.40;99.90;;;;;;5073621;28;20208;-76
2021/09/15 02:21:07;;;;;;;11.80;9.85;;;21.40;99.90;;;;;;5071530;28;20198;-76
2021/09/15 02:23:34;;;;;;;13.02;9.50;;;21.40;99.90;;;;;;5085250;28;20257;-76
2021/09/15 02:26:01;;;;;;;11.55;9.60;;;21.30;99.90;;;;;;5085854;28;20212;-76
2021/09/15 02:28:28;;;;;;;15.43;9.63;;;21.30;99.90;;;;;;5067309;28;20235;-76
2021/09/15 02:30:57;;;;;;;10.95;9.75;;;21.30;99.90;;;;;;5071429;28;20201;-76
2021/09/15 02:33:24;;;;;;;10.82;9.73;;;21.30;99.90;;;;;;5067263;28;20219;-76
2021/09/15 02:35:51;;;;;;;12.30;10.73;;;21.30;99.90;;;;;;5082089;28;20197;-76
2021/09/15 02:38:18;;;;;;;12.73;10.10;;;21.30;99.90;;;;;;5073789;28;20200;-76
2021/09/15 02:40:45;;;;;;;12.02;10.15;;;21.30;99.90;;;;;;5070119;28;20263;-76
2021/09/15 02:43:12;;;;;;;12.15;8.60;;;21.30;99.90;;;;;;5076553;28;20224;-76
2021/09/15 02:45:39;;;;;;;12.15;10.55;;;21.30;99.90;;;;;;5074366;28;20271;-76
2021/09/15 02:48:08;;;;;;;11.25;9.52;;;21.30;99.90;;;;;;5082946;28;20679;-76
2021/09/15 02:50:35;;;;;;;13.15;10.90;;;21.30;99.90;;;;;;5083033;28;20197;-76
2021/09/15 02:53:02;;;;;;;13.55;10.85;;;21.30;99.90;;;;;;5083224;28;20197;-76
2021/09/15 02:55:29;;;;;;;13.40;11.10;;;21.20;99.90;;;;;;5072380;28;20209;-76
2021/09/15 02:57:56;;;;;;;15.13;11.05;;;21.20;99.90;;;;;;5071462;28;20212;-76
2021/09/15 03:00:23;;;;;;;16.25;11.57;;;21.20;99.90;;;;;;5080380;28;20202;-76
2021/09/15 03:02:50;;;;;;;15.70;12.00;;;21.20;99.90;;;;;;5073622;28;20224;-76
2021/09/15 03:05:18;;;;;;;13.25;10.32;;;21.20;99.90;;;;;;5078357;28;20205;-76
2021/09/15 03:07:45;;;;;;;14.35;10.23;;;21.10;99.90;;;;;;5076480;28;20201;-76
2021/09/15 03:10:12;;;;;;;15.75;10.63;;;21.20;99.90;;;;;;5084537;28;20603;-76
2021/09/15 03:12:39;;;;;;;13.32;11.18;;;21.20;99.90;;;;;;5082220;28;20212;-76
2021/09/15 03:15:07;;;;;;;13.82;10.95;;;21.20;99.90;;;;;;5074154;28;21568;-76
2021/09/15 03:17:34;;;;;;;12.20;11.00;;;21.10;99.90;;;;;;5089020;28;20225;-76
2021/09/15 03:20:01;;;;;;;16.58;11.60;;;21.10;99.90;;;;;;5071578;28;20194;-76
2021/09/15 03:22:29;;;;;;;12.82;11.10;;;21.20;99.90;;;;;;5075580;28;20242;-76
2021/09/15 03:24:56;;;;;;;11.32;10.13;;;21.20;99.90;;;;;;5070147;28;20200;-76
2021/09/15 03:27:23;;;;;;;17.50;10.85;;;21.20;99.90;;;;;;5076223;28;20610;-76
2021/09/15 03:29:50;;;;;;;17.92;11.88;;;21.20;99.90;;;;;;5076144;28;20291;-76
2021/09/15 03:32:17;;;;;;;14.30;10.68;;;21.20;99.90;;;;;;5085332;28;20226;-76
2021/09/15 03:34:44;;;;;;;15.15;10.88;;;21.10;99.90;;;;;;5083233;28;20205;-76
2021/09/15 03:37:11;;;;;;;13.25;10.52;;;21.10;99.90;;;;;;5083984;28;20212;-76
2021/09/15 03:39:39;;;;;;;13.15;9.77;;;21.10;99.90;;;;;;5084282;28;20204;-76
2021/09/15 03:42:07;;;;;;;11.57;10.25;;;21.10;99.90;;;;;;5079898;28;20208;-76
2021/09/15 03:44:34;;;;;;;17.33;9.93;;;21.20;99.90;;;;;;5073018;28;20202;-76
2021/09/15 03:47:00;;;;;;;14.50;10.43;;;21.20;99.90;;;;;;5074133;28;20208;-76
2021/09/15 03:49:27;;;;;;;13.00;10.77;;;21.20;99.90;;;;;;5070277;28;20219;-76
2021/09/15 03:51:54;;;;;;;13.27;11.30;;;21.20;99.90;;;;;;5083184;28;20644;-76
2021/09/15 03:54:21;;;;;;;12.20;10.95;;;21.20;99.90;;;;;;5081149;28;20237;-76
2021/09/15 03:56:50;;;;;;;13.48;10.60;;;21.10;99.90;;;;;;5080328;28;20601;-76
2021/09/15 03:59:17;;;;;;;14.55;11.65;;;21.20;99.90;;;;;;5077944;28;20205;-76
2021/09/15 04:01:44;;;;;;;15.02;10.00;;;21.10;99.90;;;;;;5080410;28;20230;-76
2021/09/15 04:04:10;;;;;;;14.10;9.93;;;21.10;99.90;;;;;;5073124;28;20254;-76
2021/09/15 04:06:37;;;;;;;12.98;11.05;;;21.20;99.90;;;;;;5083463;28;20230;-75
2021/09/15 04:09:05;;;;;;;12.02;10.18;;;21.20;99.90;;;;;;5087946;28;20205;-75
2021/09/15 04:11:32;;;;;;;12.52;10.73;;;21.20;99.90;;;;;;5091449;28;20213;-75
2021/09/15 04:14:00;;;;;;;14.55;11.10;;;21.20;99.90;;;;;;5112173;28;20213;-74
2021/09/15 04:16:27;;;;;;;13.18;11.13;;;21.20;99.90;;;;;;5100341;28;20193;-75
2021/09/15 04:18:54;;;;;;;19.58;10.77;;;21.20;99.90;;;;;;5099841;28;20684;-75
2021/09/15 04:21:21;;;;;;;14.35;11.20;;;21.10;99.90;;;;;;5083101;28;20200;-75
2021/09/15 04:24:00;;;;;;;12.23;11.02;;;21.10;99.90;;;;;;5076032;28;20211;-75
2021/09/15 04:31:57;;;;;;;12.95;11.00;;;21.10;99.90;;;;;;5069104;28;20204;-75
2021/09/15 04:34:23;;;;;;;12.10;10.90;;;21.20;99.90;;;;;;5079414;28;20196;-75
2021/09/15 04:36:50;;;;;;;13.57;11.50;;;21.20;99.90;;;;;;5087346;28;20650;-75
2021/09/15 04:39:17;;;;;;;14.48;10.48;;;21.20;99.90;;;;;;5072723;28;20206;-75
2021/09/15 04:41:44;;;;;;;17.17;10.43;;;21.30;99.90;;;;;;5075812;28;20200;-75
2021/09/15 04:44:13;;;;;;;12.30;10.00;;;21.30;99.90;;;;;;5075707;28;20239;-75
2021/09/15 04:46:39;;;;;;;14.32;10.82;;;21.30;99.90;;;;;;5069825;28;20216;-75
2021/09/15 04:49:06;;;;;;;13.43;11.30;;;21.30;99.90;;;;;;5069699;28;20228;-75
2021/09/15 04:51:33;;;;;;;10.95;9.80;;;21.30;99.90;;;;;;5073004;28;20247;-75
2021/09/15 04:54:00;;;;;;;13.05;10.43;;;21.40;99.90;;;;;;5069146;28;20211;-75
2021/09/15 04:56:27;;;;;;;14.10;11.30;;;21.40;99.90;;;;;;5083844;28;20270;-75
2021/09/15 04:58:54;;;;;;;11.85;10.43;;;21.40;99.90;;;;;;5081771;28;20206;-75
2021/09/15 05:01:22;;;;;;;13.55;11.32;;;21.40;99.90;;;;;;5082602;28;20195;-75
2021/09/15 05:03:49;;;;;;;11.85;10.65;;;21.30;99.90;;;;;;5078496;28;20300;-75
2021/09/15 05:06:16;;;;;;;12.00;10.65;;;21.40;99.90;;;;;;5080616;28;20200;-75
2021/09/15 05:08:43;;;;;;;12.52;9.48;;;21.30;99.90;;;;;;5079156;28;20228;-76
2021/09/15 05:11:10;;;;;;;11.85;10.57;;;21.40;99.90;;;;;;5074247;28;20294;-75
2021/09/15 05:13:37;;;;;;;17.90;11.60;;;21.40;99.90;;;;;;5078705;28;20488;-75
2021/09/15 05:16:04;;;;;;;12.45;10.60;;;21.40;99.90;;;;;;5075795;28;20493;-74
2021/09/15 05:18:32;;;;;;;11.52;10.38;;;21.40;99.90;;;;;;5077480;28;20269;-75
2021/09/15 05:20:59;;;;;;;13.98;11.30;;;21.40;99.90;;;;;;5074130;28;20207;-74
2021/09/15 05:23:26;;;;;;;12.75;11.15;;;21.40;99.90;;;;;;5072635;28;20202;-74
2021/09/15 05:25:53;;;;;;;14.43;10.43;;;21.40;99.90;;;;;;5075240;28;20226;-74
2021/09/15 05:28:20;;;;;;;12.93;11.55;;;21.50;99.90;;;;;;5071671;28;20201;-74
2021/09/15 05:30:49;;;;;;;13.20;11.10;;;21.40;99.90;;;;;;5074247;28;20271;-74
2021/09/15 05:33:16;;;;;;;15.73;11.43;;;21.40;99.90;;;;;;5076512;28;20206;-74
2021/09/15 05:35:44;;;;;;;15.65;10.95;;;21.40;99.90;;;;;;5074176;28;20791;-74
2021/09/15 05:38:11;;;;;;;17.20;11.65;;;21.40;99.90;;;;;;5067749;28;20216;-74
2021/09/15 05:40:38;;;;;;;13.95;11.07;;;21.50;99.90;;;;;;5075518;28;20201;-74
2021/09/15 05:43:06;;;;;;;13.15;11.65;;;21.50;99.90;;;;;;5076338;28;20224;-74
2021/09/15 05:45:33;;;;;;;15.05;11.60;;;21.50;99.90;;;;;;5068006;28;20224;-75
2021/09/15 05:48:00;;;;;;;16.88;11.60;;;21.40;99.90;;;;;;5079572;28;20213;-75
2021/09/15 05:50:27;;;;;;;15.77;12.90;;;21.40;99.90;;;;;;5069720;28;20235;-74
2021/09/15 05:52:55;;;;;;;14.50;12.25;;;21.40;99.90;;;;;;5079852;28;20228;-75
2021/09/15 05:55:22;;;;;;;14.07;12.48;;;21.40;99.90;;;;;;5074475;28;20200;-75
2021/09/15 05:57:49;;;;;;;15.90;11.45;;;21.40;99.90;;;;;;5071448;28;20204;-74
2021/09/15 06:00:16;;;;;;;15.05;11.52;;;21.40;99.90;;;;;;5072621;28;20227;-75
2021/09/15 06:02:43;;;;;;;14.90;11.40;;;21.20;99.90;;;;;;5068159;28;20246;-75
2021/09/15 06:05:10;;;;;;;14.88;11.63;;;21.20;99.90;;;;;;5073576;28;20709;-74
2021/09/15 06:07:37;;;;;;;13.63;10.95;;;21.10;99.90;;;;;;5074302;28;20618;-75
2021/09/15 06:10:07;;;;;;;15.70;11.10;;;21.10;99.90;;;;;;5073058;28;20289;-75
2021/09/15 06:12:36;;;;;;;14.68;10.77;;;21.10;99.90;;;;;;5086251;28;20221;-75
2021/09/15 06:15:03;;;;;;;14.88;11.65;;;21.10;99.90;;;;;;5083199;28;20203;-75
2021/09/15 06:17:30;;;;;;;14.45;10.05;;;21.20;99.90;;;;;;5069785;28;20568;-75
2021/09/15 06:19:57;;;;;;;15.57;10.20;;;21.20;99.90;;;;;;5083256;28;20198;-74
2021/09/15 06:22:24;;;;;;;15.95;12.05;;;21.30;99.90;;;;;;5075075;28;20203;-75
2021/09/15 06:24:53;;;;;;;20.30;13.15;;;21.30;99.90;;;;;;5075950;28;20205;-75
2021/09/15 06:27:22;;;;;;;17.17;12.57;;;21.30;99.90;;;;;;5075654;28;20203;-75
2021/09/15 06:29:49;;;;;;;20.38;12.55;;;21.30;99.90;;;;;;5088825;28;20275;-75
2021/09/15 06:32:19;;;;;;;22.83;13.35;;;21.40;99.90;;;;;;5077972;28;20208;-75
2021/09/15 06:34:46;;;;;;;26.60;14.70;;;21.30;99.90;;;;;;5075410;28;20197;-75
2021/09/15 06:37:14;;;;;;;28.83;14.68;;;21.40;99.90;;;;;;5073957;28;20212;-75
2021/09/15 06:39:41;;;;;;;34.83;13.90;;;21.30;99.90;;;;;;5071739;28;20273;-74
2021/09/15 06:42:08;;;;;;;22.38;14.68;;;21.30;99.90;;;;;;5078499;28;20199;-74
2021/09/15 06:44:37;;;;;;;21.50;15.30;;;21.20;99.90;;;;;;5090330;28;20200;-74
2021/09/15 06:47:04;;;;;;;20.65;15.52;;;21.10;99.90;;;;;;5075943;28;20222;-74
2021/09/15 06:49:31;;;;;;;21.48;15.57;;;21.20;99.90;;;;;;5081075;28;20472;-74
2021/09/15 06:51:58;;;;;;;17.80;15.38;;;21.10;99.90;;;;;;5078161;28;20290;-74
2021/09/15 06:54:24;;;;;;;18.70;15.38;;;21.10;99.90;;;;;;5070712;28;20248;-74
2021/09/15 06:56:51;;;;;;;24.77;15.50;;;21.10;99.90;;;;;;5070789;28;20204;-75
2021/09/15 06:59:18;;;;;;;18.70;14.95;;;21.20;99.90;;;;;;5076971;28;20201;-74
2021/09/15 07:01:47;;;;;;;19.95;14.82;;;21.20;99.90;;;;;;5071562;28;20206;-74
2021/09/15 07:04:14;;;;;;;22.73;15.95;;;21.20;99.90;;;;;;5070882;28;20767;-74
2021/09/15 07:06:41;;;;;;;17.92;14.48;;;21.20;99.90;;;;;;5076590;28;20735;-75
2021/09/15 07:09:08;;;;;;;21.90;14.70;;;21.20;99.90;;;;;;5071688;28;20200;-74
2021/09/15 07:11:36;;;;;;;20.50;15.23;;;21.20;99.90;;;;;;5093422;28;20635;-75
2021/09/15 07:14:04;;;;;;;23.90;14.77;;;21.30;99.90;;;;;;5086497;28;20203;-74
2021/09/15 07:16:31;;;;;;;18.15;14.65;;;21.30;99.90;;;;;;5074949;28;20259;-74
2021/09/15 07:19:00;;;;;;;19.20;15.00;;;21.30;99.90;;;;;;5074211;28;20546;-74
2021/09/15 07:21:27;;;;;;;21.90;15.32;;;21.40;99.90;;;;;;5077890;28;20250;-74
2021/09/15 07:23:53;;;;;;;22.27;14.13;;;21.40;99.90;;;;;;5069195;28;20199;-74
2021/09/15 07:26:20;;;;;;;15.57;13.98;;;21.40;99.90;;;;;;5070854;28;20234;-74
2021/09/15 07:28:47;;;;;;;17.73;14.60;;;21.40;99.90;;;;;;5075907;28;20215;-74
2021/09/15 07:31:14;;;;;;;21.02;15.80;;;21.40;99.90;;;;;;5069360;28;20257;-74
2021/09/15 07:33:41;;;;;;;18.60;13.73;;;21.40;99.90;;;;;;5078194;28;20269;-74
2021/09/15 07:36:10;;;;;;;20.38;14.02;;;21.40;99.90;;;;;;5078215;28;20230;-74
2021/09/15 07:38:37;;;;;;;19.58;14.07;;;21.50;99.90;;;;;;5070056;28;20216;-74
2021/09/15 07:41:05;;;;;;;18.70;14.13;;;21.50;99.90;;;;;;5081741;28;20223;-74
2021/09/15 07:43:33;;;;;;;21.08;16.30;;;21.50;99.90;;;;;;5088771;28;20205;-74
2021/09/15 07:46:00;;;;;;;23.33;16.13;;;21.50;99.90;;;;;;5070487;28;20259;-74
2021/09/15 07:48:27;;;;;;;25.40;16.15;;;21.50;99.90;;;;;;5082073;28;20201;-74
2021/09/15 07:50:55;;;;;;;22.98;16.90;;;21.50;99.90;;;;;;5082435;28;20756;-74
2021/09/15 07:53:23;;;;;;;21.48;15.48;;;21.50;99.90;;;;;;5073415;28;20207;-74
2021/09/15 07:55:50;;;;;;;19.83;16.05;;;21.50;99.90;;;;;;5082844;28;20203;-74
2021/09/15 07:58:17;;;;;;;20.77;15.45;;;21.60;99.90;;;;;;5076448;28;20203;-74
2021/09/15 08:00:44;;;;;;;23.33;16.23;;;21.60;99.90;;;;;;5083991;28;20237;-74
2021/09/15 08:03:12;;;;;;;20.20;15.45;;;21.60;99.90;;;;;;5079917;28;20238;-74
2021/09/15 08:05:39;;;;;;;20.08;14.57;;;21.60;99.90;;;;;;5070446;28;20214;-74
2021/09/15 08:08:06;;;;;;;22.40;15.77;;;21.60;99.90;;;;;;5075686;28;20256;-74
2021/09/15 08:10:34;;;;;;;25.23;15.48;;;21.60;99.90;;;;;;5071195;28;20251;-74
2021/09/15 08:13:01;;;;;;;21.65;14.80;;;21.60;99.90;;;;;;5072214;28;20200;-75
2021/09/15 08:15:29;;;;;;;20.33;14.93;;;21.50;99.90;;;;;;5069840;28;20206;-74
2021/09/15 08:17:56;;;;;;;19.33;14.48;;;21.50;99.90;;;;;;5077043;28;20207;-74
2021/09/15 08:20:23;;;;;;;16.45;14.10;;;21.50;99.90;;;;;;5077822;28;21193;-74
2021/09/15 08:22:50;;;;;;;20.77;13.95;;;21.50;99.90;;;;;;5086643;28;20739;-74
2021/09/15 08:25:17;;;;;;;19.77;13.38;;;21.50;99.90;;;;;;5077751;28;20225;-74
2021/09/15 08:27:46;;;;;;;18.55;15.02;;;21.50;99.90;;;;;;5078322;28;20252;-74
2021/09/15 08:30:13;;;;;;;19.08;13.40;;;21.60;99.90;;;;;;5073547;28;20232;-74
2021/09/15 08:32:40;;;;;;;16.35;13.55;;;21.60;99.90;;;;;;5085817;28;20281;-75
2021/09/15 08:35:08;;;;;;;18.77;13.50;;;21.60;99.90;;;;;;5079441;28;20225;-75
2021/09/15 08:37:35;;;;;;;21.50;14.15;;;21.70;99.90;;;;;;5077773;28;20202;-75
2021/09/15 08:40:03;;;;;;;20.92;14.50;;;21.70;99.90;;;;;;5078705;28;20586;-74
2021/09/15 08:42:30;;;;;;;16.70;14.15;;;21.60;99.90;;;;;;5069341;28;20226;-74
2021/09/15 08:44:58;;;;;;;17.73;13.65;;;21.60;99.90;;;;;;5074575;28;20209;-74
2021/09/15 08:47:27;;;;;;;20.38;13.85;;;21.70;99.90;;;;;;5073247;28;20206;-74
2021/09/15 08:49:54;;;;;;;17.17;13.82;;;21.70;99.90;;;;;;5078363;28;20245;-75
2021/09/15 08:52:21;;;;;;;19.75;13.07;;;21.80;99.90;;;;;;5084131;28;20224;-75
2021/09/15 08:54:48;;;;;;;17.23;12.93;;;21.90;99.90;;;;;;5079843;28;20222;-75
2021/09/15 08:57:15;;;;;;;20.60;13.00;;;22.00;99.90;;;;;;5074640;28;20252;-74
2021/09/15 08:59:42;;;;;;;16.75;12.90;;;22.00;99.90;;;;;;5082639;28;20217;-75
2021/09/15 09:02:11;;;;;;;20.67;13.93;;;21.90;99.90;;;;;;5086901;28;20213;-74
2021/09/15 09:04:55;;;;;;;18.67;13.50;;;21.90;99.90;;;;;;5075067;28;20261;-74
2021/09/15 09:07:24;;;;;;;18.85;13.45;;;21.90;99.90;;;;;;5073857;28;20197;-74
2021/09/15 09:09:52;;;;;;;17.30;11.02;;;21.80;99.90;;;;;;5080098;28;20687;-74
2021/09/15 09:12:22;;;;;;;18.05;11.45;;;21.70;99.90;;;;;;5069025;28;20193;-74
2021/09/15 09:14:48;;;;;;;17.63;11.25;;;21.60;99.90;;;;;;5079532;28;20219;-74
2021/09/15 09:17:31;;;;;;;12.70;10.98;;;21.50;99.90;;;;;;5077630;28;20223;-74
2021/09/15 09:20:16;;;;;;;18.52;11.98;;;21.50;99.90;;;;;;5071016;28;20194;-74
2021/09/15 09:23:04;;;;;;;15.95;11.35;;;21.30;99.90;;;;;;5069546;28;20215;-74
2021/09/15 09:25:33;;;;;;;13.88;10.32;;;21.30;99.90;;;;;;5080124;28;20229;-74
2021/09/15 09:28:00;;;;;;;17.63;11.48;;;21.20;99.90;;;;;;5073753;28;20231;-75
2021/09/15 09:30:35;;;;;;;14.57;11.45;;;21.10;99.90;;;;;;5082104;28;20260;-74
2021/09/15 09:33:04;;;;;;;16.15;10.60;;;21.10;99.90;;;;;;5081540;28;20205;-74
2021/09/15 09:35:39;;;;;;;14.88;10.32;;;21.00;99.90;;;;;;5079886;28;20194;-74
2021/09/15 09:38:20;;;;;;;15.30;11.07;;;21.00;99.90;;;;;;5072829;28;20212;-74
2021/09/15 09:40:55;;;;;;;16.08;10.35;;;21.10;99.90;;;;;;5067548;28;20268;-74
2021/09/15 09:43:22;;;;;;;16.13;10.50;;;21.10;99.90;;;;;;5074662;28;20223;-74
2021/09/15 09:45:49;;;;;;;15.93;10.13;;;21.10;99.90;;;;;;5068801;28;20207;-75
2021/09/15 09:48:45;;;;;;;10.98;8.93;;;21.20;99.90;;;;;;5086014;28;20203;-74
2021/09/15 09:51:32;;;;;;;14.27;10.07;;;21.20;99.90;;;;;;5071908;28;20295;-75
2021/09/15 09:54:20;;;;;;;10.77;8.55;;;21.30;99.90;;;;;;5074774;28;20216;-74
2021/09/15 09:56:48;;;;;;;13.15;8.23;;;21.40;99.90;;;;;;5094594;28;20217;-74
2021/09/15 09:59:16;;;;;;;10.27;8.20;;;21.40;99.90;;;;;;5098593;28;20213;-74
2021/09/15 10:05:02;;;;;;;11.55;8.85;;;21.50;99.90;;;;;;5114026;27;20558;-75
2021/09/15 10:07:29;;;;;;;14.90;8.35;;;21.50;99.90;;;;;;5103935;28;20279;-74
2021/09/15 10:09:56;;;;;;;9.52;7.80;;;21.50;99.90;;;;;;5108647;28;20206;-74
2021/09/15 10:12:25;;;;;;;14.52;8.10;;;21.60;99.90;;;;;;5103551;28;20199;-74
2021/09/15 10:14:52;;;;;;;8.95;7.47;;;21.50;99.90;;;;;;5113105;28;20204;-74
2021/09/15 10:17:27;;;;;;;9.23;6.05;;;21.60;99.90;;;;;;5103496;28;20202;-74
2021/09/15 10:19:56;;;;;;;9.07;6.38;;;21.70;99.90;;;;;;5103222;28;20203;-74
2021/09/15 10:22:31;;;;;;;8.13;6.18;;;21.80;99.90;;;;;;5111699;28;20248;-74
2021/09/15 10:25:00;;;;;;;6.28;4.80;;;21.80;99.90;;;;;;5114513;28;20200;-74
2021/09/15 10:27:28;;;;;;;6.15;5.32;;;21.90;99.90;;;;;;5103284;28;20242;-74
2021/09/15 10:30:05;;;;;;;7.38;6.55;;;22.00;99.90;;;;;;5103858;28;20228;-74
2021/09/15 10:32:33;;;;;;;8.00;5.85;;;22.00;99.90;;;;;;5103227;28;20197;-74
2021/09/15 10:35:01;;;;;;;10.35;6.57;;;22.00;99.90;;;;;;5103146;28;20218;-74
2021/09/15 10:37:54;;;;;;;6.45;5.32;;;21.90;99.90;;;;;;5103460;28;20197;-74
2021/09/15 10:40:32;;;;;;;7.03;5.63;;;21.90;99.90;;;;;;5101928;28;20207;-74
2021/09/15 10:43:00;;;;;;;5.30;4.78;;;21.90;99.90;;;;;;5103086;28;20224;-74
2021/09/15 10:45:29;;;;;;;7.85;5.75;;;21.90;99.90;;;;;;5103445;28;20222;-74
2021/09/15 10:47:58;;;;;;;6.65;5.88;;;21.90;99.90;;;;;;5103183;28;20571;-74
2021/09/15 10:50:51;;;;;;;12.35;6.05;;;22.00;99.90;;;;;;5108674;28;20203;-74
2021/09/15 10:53:22;;;;;;;5.68;5.18;;;22.00;99.90;;;;;;5102925;28;20252;-74
2021/09/15 10:55:51;;;;;;;5.68;5.18;;;22.00;99.90;;;;;;5106233;28;20202;-74
2021/09/15 10:58:20;;;;;;;6.43;5.82;;;22.10;99.90;;;;;;5109549;28;20226;-74
2021/09/15 11:00:49;;;;;;;6.88;5.97;;;22.10;99.90;;;;;;5104780;28;20201;-74
2021/09/15 11:03:28;;;;;;;8.80;6.57;;;22.10;99.90;;;;;;5106045;28;20651;-74
2021/09/15 11:05:55;;;;;;;5.97;5.47;;;22.10;99.90;;;;;;5101380;28;20270;-74
2021/09/15 11:08:42;;;;;;;11.75;6.72;;;22.10;99.90;;;;;;5107189;28;20210;-74
2021/09/15 11:11:11;;;;;;;13.57;8.00;;;22.10;99.90;;;;;;5108401;28;20215;-74
2021/09/15 11:13:53;;;;;;;8.30;7.43;;;22.00;99.90;;;;;;5114808;28;20202;-74
2021/09/15 11:16:29;;;;;;;9.07;8.02;;;22.00;99.90;;;;;;5089250;28;20205;-74
2021/09/15 11:18:57;;;;;;;9.82;8.93;;;22.00;99.90;;;;;;5089118;28;20240;-74
2021/09/15 11:21:25;;;;;;;9.50;7.90;;;22.10;99.90;;;;;;5088840;28;20193;-74
2021/09/15 11:23:59;;;;;;;12.27;9.15;;;22.20;99.90;;;;;;5093395;28;20250;-74
2021/09/15 11:26:42;;;;;;;13.75;8.73;;;22.10;99.90;;;;;;5094247;28;20206;-74
2021/09/15 11:29:10;;;;;;;10.82;8.85;;;22.10;99.90;;;;;;5088511;28;20202;-74
2021/09/15 11:31:38;;;;;;;12.23;9.98;;;22.20;99.90;;;;;;5089046;28;20199;-75
2021/09/15 11:34:08;;;;;;;10.70;9.35;;;22.30;99.90;;;;;;5088797;28;20200;-74
2021/09/15 11:36:35;;;;;;;12.88;10.48;;;22.40;99.90;;;;;;5093732;28;20596;-75
2021/09/15 11:39:05;;;;;;;12.45;9.77;;;22.50;99.90;;;;;;5088429;28;20207;-74
2021/09/15 11:41:32;;;;;;;13.05;9.57;;;22.50;99.90;;;;;;5089310;28;20204;-75
2021/09/15 11:44:00;;;;;;;17.98;12.48;;;22.50;99.90;;;;;;5092314;28;20219;-74
2021/09/15 11:46:34;;;;;;;17.55;12.05;;;22.50;99.90;;;;;;5095755;28;20196;-74
2021/09/15 11:49:02;;;;;;;16.38;11.38;;;22.60;99.90;;;;;;5088002;28;20203;-74
2021/09/15 11:51:32;;;;;;;16.65;12.55;;;22.60;99.90;;;;;;5095160;28;20203;-75
2021/09/15 11:54:03;;;;;;;15.32;11.88;;;22.70;99.90;;;;;;5096796;28;20204;-75
2021/09/15 11:56:35;;;;;;;14.70;12.27;;;22.60;99.90;;;;;;5086911;28;20194;-75
2021/09/15 11:59:03;;;;;;;14.93;12.13;;;22.60;99.90;;;;;;5089626;28;20219;-74
2021/09/15 12:01:32;;;;;;;18.08;12.30;;;22.60;99.90;;;;;;5097550;28;20221;-75
2021/09/15 12:04:02;;;;;;;18.40;13.55;;;22.60;99.90;;;;;;5086606;28;20236;-75
2021/09/15 12:06:30;;;;;;;14.23;12.57;;;22.70;99.90;;;;;;5092107;28;20207;-75
2021/09/15 12:08:58;;;;;;;14.35;12.00;;;22.60;99.90;;;;;;5087469;28;20230;-74
2021/09/15 12:11:29;;;;;;;16.00;11.90;;;22.70;99.90;;;;;;5097567;28;20631;-75
2021/09/15 12:14:01;;;;;;;16.02;12.20;;;22.70;99.90;;;;;;5094899;28;20231;-74
2021/09/15 12:16:30;;;;;;;16.13;12.25;;;22.70;99.90;;;;;;5088065;28;20207;-75
2021/09/15 12:18:57;;;;;;;14.73;11.45;;;22.70;99.90;;;;;;5087435;28;20199;-75
2021/09/15 12:21:25;;;;;;;14.82;12.60;;;22.70;99.90;;;;;;5088549;28;20303;-74
2021/09/15 12:24:02;;;;;;;14.25;11.43;;;22.70;99.90;;;;;;5087490;28;20256;-75
2021/09/15 12:26:29;;;;;;;13.68;11.98;;;22.70;99.90;;;;;;5095760;28;20221;-74
2021/09/15 12:29:06;;;;;;;16.98;10.88;;;22.70;99.90;;;;;;5091133;28;20203;-75
2021/09/15 12:31:47;;;;;;;14.57;11.95;;;22.70;99.90;;;;;;5086692;28;20567;-74
2021/09/15 12:34:15;;;;;;;14.65;11.98;;;22.70;99.90;;;;;;5087971;28;21053;-74
2021/09/15 12:36:43;;;;;;;13.20;11.52;;;22.80;99.90;;;;;;5088760;28;20261;-75
2021/09/15 12:39:14;;;;;;;14.23;12.10;;;22.90;99.90;;;;;;5098861;28;20176;-74
2021/09/15 12:41:56;;;;;;;14.23;11.60;;;22.90;99.90;;;;;;5101090;28;20277;-74
2021/09/15 12:44:33;;;;;;;11.65;10.45;;;23.10;99.90;;;;;;5100388;28;20214;-74
2021/09/15 12:47:04;;;;;;;12.80;11.07;;;23.20;99.90;;;;;;5099445;28;20200;-74